createdAt,value
2019-04-04T00:01:16.683Z,7.33
2019-04-04T00:03:45.985Z,7.10
2019-04-04T00:06:15.247Z,6.70
2019-04-04T00:08:44.444Z,6.97
2019-04-04T00:11:13.681Z,7.33
2019-04-04T00:13:42.943Z,6.87
2019-04-04T00:16:15.601Z,7.00
2019-04-04T00:18:43.301Z,6.50
2019-04-04T00:21:12.567Z,7.23
2019-04-04T00:23:41.859Z,6.57
2019-04-04T00:26:12.949Z,6.60
2019-04-04T00:28:42.152Z,7.00
2019-04-04T00:31:11.427Z,6.73
2019-04-04T00:33:40.737Z,6.77
2019-04-04T00:36:10.003Z,6.70
2019-04-04T00:38:39.277Z,6.77
2019-04-04T00:41:08.573Z,6.40
2019-04-04T00:43:37.785Z,6.70
2019-04-04T00:46:06.993Z,6.83
2019-04-04T00:48:36.303Z,5.87
2019-04-04T00:51:07.688Z,6.77
2019-04-04T00:53:36.691Z,6.00
2019-04-04T00:56:05.981Z,6.07
2019-04-04T00:58:35.187Z,5.97
2019-04-04T01:01:04.708Z,6.07
2019-04-04T01:03:34.005Z,5.73
2019-04-04T01:06:03.726Z,5.93
2019-04-04T01:08:33.187Z,6.30
2019-04-04T01:11:02.461Z,5.70
2019-04-04T01:13:31.731Z,5.93
2019-04-04T01:16:02.460Z,5.50
2019-04-04T01:18:32.013Z,5.83
2019-04-04T01:21:01.226Z,5.60
2019-04-04T01:23:30.421Z,6.17
2019-04-04T01:26:03.076Z,5.20
2019-04-04T01:28:30.607Z,5.87
2019-04-04T01:30:59.847Z,6.10
2019-04-04T01:33:29.084Z,5.60
2019-04-04T01:35:58.295Z,6.17
2019-04-04T01:38:29.097Z,5.37
2019-04-04T01:40:58.447Z,6.00
2019-04-04T01:43:27.642Z,5.40
2019-04-04T01:45:56.857Z,5.53
2019-04-04T01:48:26.295Z,5.80
2019-04-04T01:50:55.360Z,5.80
2019-04-04T01:53:24.525Z,5.60
2019-04-04T01:55:53.798Z,6.00
2019-04-04T01:58:24.955Z,5.40
2019-04-04T02:00:54.157Z,5.97
2019-04-04T02:03:23.437Z,5.77
2019-04-04T02:05:52.505Z,6.20
2019-04-04T02:08:21.634Z,5.57
2019-04-04T02:10:50.916Z,5.90
2019-04-04T02:13:23.216Z,5.70
2019-04-04T02:15:52.432Z,5.43
2019-04-04T02:18:23.301Z,5.90
2019-04-04T02:20:52.442Z,5.67
2019-04-04T02:23:21.563Z,5.70
2019-04-04T02:25:50.734Z,5.57
2019-04-04T02:28:19.925Z,5.90
2019-04-04T02:30:49.353Z,6.27
2019-04-04T02:33:18.657Z,5.90
2019-04-04T02:35:48.052Z,6.00
2019-04-04T02:38:17.175Z,5.60
2019-04-04T02:40:46.411Z,5.77
2019-04-04T02:43:15.821Z,5.23
2019-04-04T02:45:45.009Z,5.90
2019-04-04T02:48:14.239Z,5.73
2019-04-04T02:50:43.442Z,5.97
2019-04-04T02:53:13.099Z,5.60
2019-04-04T02:55:42.256Z,5.87
2019-04-04T02:58:15.086Z,6.10
2019-04-04T03:00:42.406Z,5.47
2019-04-04T03:03:11.666Z,5.33
2019-04-04T03:05:41.001Z,5.13
2019-04-04T03:08:10.190Z,6.10
2019-04-04T03:10:39.436Z,6.23
2019-04-04T03:13:08.566Z,5.77
2019-04-04T03:15:41.371Z,5.50
2019-04-04T03:18:08.833Z,5.60
2019-04-04T03:20:38.015Z,6.23
2019-04-04T03:23:07.087Z,6.00
2019-04-04T03:25:36.579Z,5.63
2019-04-04T03:28:05.775Z,5.37
2019-04-04T03:30:34.943Z,5.60
2019-04-04T03:33:04.195Z,5.43
2019-04-04T03:35:33.408Z,5.90
2019-04-04T03:38:02.597Z,5.70
2019-04-04T03:40:31.810Z,6.43
2019-04-04T03:43:00.873Z,5.80
2019-04-04T03:45:29.927Z,5.63
2019-04-04T03:47:59.096Z,5.50
2019-04-04T03:50:30.215Z,5.60
2019-04-04T03:52:59.148Z,6.23
2019-04-04T03:55:28.672Z,6.03
2019-04-04T03:57:58.136Z,5.63
2019-04-04T04:00:32.894Z,6.17
2019-04-04T04:03:02.112Z,5.77
2019-04-04T04:05:35.691Z,6.40
2019-04-04T04:08:03.282Z,6.80
2019-04-04T04:10:33.720Z,5.60
2019-04-04T04:13:03.314Z,6.50
2019-04-04T04:15:32.420Z,5.80
2019-04-04T04:18:01.556Z,6.30
2019-04-04T04:20:30.820Z,6.40
2019-04-04T04:23:00.467Z,6.20
2019-04-04T04:25:29.580Z,5.97
2019-04-04T04:28:02.765Z,5.83
2019-04-04T04:30:29.988Z,6.00
2019-04-04T04:32:59.162Z,6.03
2019-04-04T04:35:28.356Z,5.80
2019-04-04T04:37:57.507Z,6.03
2019-04-04T04:40:26.634Z,6.27
2019-04-04T04:42:59.810Z,6.43
2019-04-04T04:45:26.782Z,6.13
2019-04-04T04:47:57.288Z,6.90
2019-04-04T04:50:26.660Z,6.33
2019-04-04T04:52:55.833Z,6.57
2019-04-04T04:55:27.227Z,6.63
2019-04-04T04:57:56.679Z,7.27
2019-04-04T05:00:27.940Z,6.63
2019-04-04T05:02:57.179Z,7.33
2019-04-04T05:05:26.384Z,7.33
2019-04-04T05:07:55.551Z,7.00
2019-04-04T05:10:24.776Z,7.67
2019-04-04T05:12:54.001Z,6.80
2019-04-04T05:15:23.141Z,7.33
2019-04-04T05:17:52.307Z,7.00
2019-04-04T05:20:23.131Z,7.37
2019-04-04T05:22:52.323Z,7.20
2019-04-04T05:25:21.521Z,7.30
2019-04-04T05:27:50.592Z,7.60
2019-04-04T05:30:20.426Z,7.20
2019-04-04T05:32:52.086Z,7.30
2019-04-04T05:35:20.835Z,7.33
2019-04-04T05:37:50.020Z,7.20
2019-04-04T05:40:19.304Z,8.03
2019-04-04T05:42:48.513Z,6.77
2019-04-04T05:45:17.747Z,7.37
2019-04-04T05:47:46.823Z,7.60
2019-04-04T05:50:16.518Z,7.27
2019-04-04T05:52:45.870Z,7.43
2019-04-04T05:55:15.061Z,7.30
2019-04-04T05:57:44.275Z,7.70
2019-04-04T06:00:14.781Z,7.57
2019-04-04T06:02:44.059Z,7.30
2019-04-04T06:05:13.763Z,7.13
2019-04-04T06:07:42.892Z,6.67
2019-04-04T06:10:12.567Z,7.53
2019-04-04T06:12:41.703Z,7.17
2019-04-04T06:15:11.057Z,6.97
2019-04-04T06:17:40.258Z,6.80
2019-04-04T06:20:10.164Z,6.97
2019-04-04T06:22:39.406Z,6.60
2019-04-04T06:25:08.726Z,6.93
2019-04-04T06:27:39.927Z,7.13
2019-04-04T06:30:08.996Z,7.00
2019-04-04T06:32:40.822Z,6.90
2019-04-04T06:35:13.325Z,7.60
2019-04-04T06:37:46.438Z,7.40
2019-04-04T06:40:17.292Z,7.83
2019-04-04T06:42:47.947Z,8.30
2019-04-04T06:45:17.112Z,7.37
2019-04-04T06:47:47.950Z,7.40
2019-04-04T06:50:20.141Z,7.77
2019-04-04T06:52:52.453Z,8.10
2019-04-04T06:55:21.669Z,7.43
2019-04-04T06:57:53.983Z,7.70
2019-04-04T07:00:24.792Z,8.13
2019-04-04T07:02:56.070Z,6.93
2019-04-04T07:05:27.228Z,6.70
2019-04-04T07:07:56.400Z,7.40
2019-04-04T07:10:29.083Z,6.70
2019-04-04T07:13:14.568Z,6.80
2019-04-04T07:15:31.417Z,6.60
2019-04-04T07:18:00.479Z,7.33
2019-04-04T07:20:33.203Z,6.77
2019-04-04T07:23:04.170Z,7.43
2019-04-04T07:25:35.865Z,7.17
2019-04-04T07:28:05.429Z,7.83
2019-04-04T07:30:36.065Z,7.80
2019-04-04T07:33:05.284Z,8.17
2019-04-04T07:35:36.176Z,7.97
2019-04-04T07:38:05.796Z,7.97
2019-04-04T07:40:37.179Z,8.23
2019-04-04T07:43:08.498Z,8.07
2019-04-04T07:45:36.980Z,8.90
2019-04-04T07:48:06.116Z,8.20
2019-04-04T07:50:35.317Z,8.10
2019-04-04T07:53:05.176Z,8.70
2019-04-04T07:55:34.660Z,7.83
2019-04-04T07:58:03.833Z,8.43
2019-04-04T08:00:35.212Z,11.00
2019-04-04T08:03:06.045Z,8.40
2019-04-04T08:05:35.259Z,8.27
2019-04-04T08:08:06.133Z,8.10
2019-04-04T08:10:36.976Z,8.43
2019-04-04T08:13:07.721Z,8.23
2019-04-04T08:15:38.601Z,8.50
2019-04-04T08:18:09.423Z,8.87
2019-04-04T08:20:38.726Z,10.10
2019-04-04T08:23:07.961Z,8.90
2019-04-04T08:25:37.099Z,8.90
2019-04-04T08:28:06.308Z,9.17
2019-04-04T08:30:35.559Z,8.60
2019-04-04T08:33:08.268Z,8.43
2019-04-04T08:35:39.101Z,8.60
2019-04-04T08:38:16.889Z,8.53
2019-04-04T08:40:47.730Z,8.73
2019-04-04T08:43:20.051Z,8.20
2019-04-04T08:45:49.106Z,8.40
2019-04-04T08:48:19.695Z,8.50
2019-04-04T08:50:50.555Z,9.07
2019-04-04T08:53:19.769Z,8.40
2019-04-04T08:55:51.566Z,8.87
2019-04-04T08:58:24.905Z,8.77
2019-04-04T09:00:58.173Z,7.83
2019-04-04T09:03:27.379Z,8.70
2019-04-04T09:05:58.048Z,8.93
2019-04-04T09:08:27.375Z,9.00
2019-04-04T09:10:57.615Z,8.93
2019-04-04T09:13:28.408Z,8.50
2019-04-04T09:15:57.705Z,9.07
2019-04-04T09:18:26.760Z,8.57
2019-04-04T09:20:55.941Z,7.93
2019-04-04T09:23:25.075Z,8.93
2019-04-04T09:26:05.074Z,8.50
2019-04-04T09:28:28.171Z,8.97
2019-04-04T09:30:57.283Z,8.73
2019-04-04T09:33:28.104Z,8.40
2019-04-04T09:35:57.351Z,8.37
2019-04-04T09:38:29.016Z,8.90
2019-04-04T09:40:57.463Z,8.57
2019-04-04T09:43:26.707Z,8.37
2019-04-04T09:45:55.893Z,8.30
2019-04-04T09:48:26.659Z,8.60
2019-04-04T09:50:55.834Z,8.37
2019-04-04T09:53:26.707Z,8.70
2019-04-04T09:55:55.833Z,8.97
2019-04-04T09:58:25.078Z,8.93
2019-04-04T10:00:54.633Z,8.57
2019-04-04T10:03:25.821Z,8.43
2019-04-04T10:05:56.002Z,8.73
2019-04-04T10:08:25.204Z,9.03
2019-04-04T10:10:56.005Z,8.40
2019-04-04T10:13:25.165Z,9.40
2019-04-04T10:15:56.081Z,9.03
2019-04-04T10:18:28.939Z,8.17
2019-04-04T10:21:11.194Z,8.70
2019-04-04T10:23:35.908Z,8.03
2019-04-04T10:26:06.615Z,8.40
2019-04-04T10:28:36.116Z,8.47
2019-04-04T10:31:08.687Z,8.67
2019-04-04T10:33:42.378Z,8.80
2019-04-04T10:36:14.887Z,8.60
2019-04-04T10:38:44.452Z,8.87
2019-04-04T10:41:15.184Z,9.30
2019-04-04T10:43:44.440Z,8.50
2019-04-04T10:46:13.626Z,9.10
2019-04-04T10:48:45.549Z,9.27
2019-04-04T10:51:14.758Z,8.87
2019-04-04T10:53:43.823Z,9.00
2019-04-04T10:56:13.063Z,8.63
2019-04-04T10:58:45.387Z,8.93
2019-04-04T11:01:16.067Z,8.90
2019-04-04T11:03:47.938Z,8.60
2019-04-04T11:06:17.146Z,8.73
2019-04-04T11:08:46.309Z,9.10
2019-04-04T11:11:15.452Z,8.73
2019-04-04T11:13:44.690Z,8.27
2019-04-04T11:16:13.945Z,9.20
2019-04-04T11:18:43.422Z,9.13
2019-04-04T11:21:12.733Z,9.93
2019-04-04T11:23:42.095Z,9.73
2019-04-04T11:26:11.347Z,9.00
2019-04-04T11:28:40.560Z,12.60
2019-04-04T11:31:10.231Z,9.43
2019-04-04T11:33:39.506Z,8.97
2019-04-04T11:36:08.648Z,8.70
2019-04-04T11:38:37.867Z,8.57
2019-04-04T11:41:07.173Z,8.97
2019-04-04T11:43:40.125Z,8.80
2019-04-04T11:46:09.356Z,8.93
2019-04-04T11:48:38.730Z,9.33
2019-04-04T11:51:10.339Z,9.30
2019-04-04T11:53:41.255Z,9.13
2019-04-04T11:56:10.406Z,8.93
2019-04-04T11:58:40.980Z,8.57
2019-04-04T12:01:14.755Z,8.43
2019-04-04T12:03:46.409Z,8.17
2019-04-04T12:06:17.104Z,10.23
2019-04-04T12:08:46.288Z,10.40
2019-04-04T12:11:15.821Z,8.60
2019-04-04T12:13:45.031Z,8.93
2019-04-04T12:16:15.921Z,8.27
2019-04-04T12:18:45.137Z,8.73
2019-04-04T12:21:15.994Z,9.13
2019-04-04T12:23:45.038Z,8.77
2019-04-04T12:26:14.757Z,8.87
2019-04-04T12:28:43.986Z,8.50
2019-04-04T12:31:13.310Z,8.97
2019-04-04T12:33:42.470Z,8.50
2019-04-04T12:36:24.134Z,8.20
2019-04-04T12:38:43.961Z,8.60
2019-04-04T12:41:15.198Z,8.53
2019-04-04T12:43:46.002Z,8.90
2019-04-04T12:46:15.809Z,8.80
2019-04-04T12:48:47.945Z,8.73
2019-04-04T12:51:20.228Z,8.63
2019-04-04T12:53:50.853Z,9.20
2019-04-04T12:56:22.070Z,8.23
2019-04-04T12:58:53.283Z,9.00
2019-04-04T13:01:23.851Z,8.77
2019-04-04T13:03:55.370Z,8.87
2019-04-04T13:06:26.204Z,8.30
2019-04-04T13:08:55.469Z,8.50
2019-04-04T13:11:24.647Z,9.20
2019-04-04T13:13:55.513Z,8.73
2019-04-04T13:16:27.843Z,9.10
2019-04-04T13:18:57.095Z,9.03
2019-04-04T13:21:27.810Z,8.90
2019-04-04T13:23:57.062Z,8.83
2019-04-04T13:26:27.862Z,9.53
2019-04-04T13:29:00.143Z,8.80
2019-04-04T13:31:29.490Z,9.20
2019-04-04T13:33:58.604Z,8.33
2019-04-04T13:36:29.301Z,8.97
2019-04-04T13:39:00.160Z,9.20
2019-04-04T13:41:31.076Z,8.83
2019-04-04T13:44:00.230Z,9.30
2019-04-04T13:46:29.497Z,8.97
2019-04-04T13:49:01.256Z,8.83
2019-04-04T13:51:32.289Z,8.40
2019-04-04T13:54:04.425Z,9.63
2019-04-04T13:56:36.686Z,8.57
2019-04-04T13:59:10.014Z,9.10
2019-04-04T14:01:42.934Z,8.70
2019-04-04T14:04:13.928Z,9.10
2019-04-04T14:06:43.062Z,9.10
2019-04-04T14:09:14.013Z,8.90
2019-04-04T14:11:44.790Z,9.43
2019-04-04T14:14:13.855Z,9.70
2019-04-04T14:16:44.148Z,8.93
2019-04-04T14:19:15.100Z,9.07
2019-04-04T14:21:44.948Z,9.23
2019-04-04T14:24:14.534Z,8.97
2019-04-04T14:26:46.090Z,9.50
2019-04-04T14:29:27.192Z,9.20
2019-04-04T14:31:49.945Z,9.70
2019-04-04T14:34:20.627Z,8.80
2019-04-04T14:36:49.944Z,8.80
2019-04-04T14:39:20.127Z,9.00
2019-04-04T14:41:49.447Z,8.80
2019-04-04T14:44:21.428Z,8.57
2019-04-04T14:46:50.620Z,8.93
2019-04-04T14:49:20.126Z,8.27
2019-04-04T14:51:49.377Z,8.10
2019-04-04T14:54:19.996Z,8.20
2019-04-04T14:56:49.269Z,7.80
2019-04-04T14:59:19.810Z,8.50
2019-04-04T15:01:48.949Z,8.27
2019-04-04T15:04:19.724Z,8.17
2019-04-04T15:06:48.969Z,8.10
2019-04-04T15:09:21.547Z,8.60
2019-04-04T15:11:52.480Z,7.93
2019-04-04T15:14:23.390Z,8.13
2019-04-04T15:16:54.244Z,8.27
2019-04-04T15:19:24.958Z,8.07
2019-04-04T15:21:56.859Z,8.13
2019-04-04T15:24:27.618Z,8.70
2019-04-04T15:26:58.481Z,8.87
2019-04-04T15:29:27.720Z,9.13
2019-04-04T15:32:00.119Z,8.63
2019-04-04T15:34:29.375Z,10.50
2019-04-04T15:37:00.288Z,8.63
2019-04-04T15:39:29.581Z,8.80
2019-04-04T15:42:00.417Z,8.93
2019-04-04T15:44:31.261Z,9.13
2019-04-04T15:47:02.360Z,9.57
2019-04-04T15:49:33.961Z,9.57
2019-04-04T15:52:05.788Z,9.50
2019-04-04T15:54:34.930Z,8.47
2019-04-04T15:57:04.242Z,9.43
2019-04-04T15:59:36.511Z,9.83
2019-04-04T16:02:07.371Z,8.70
2019-04-04T16:04:38.233Z,9.57
2019-04-04T16:07:09.285Z,10.03
2019-04-04T16:09:38.498Z,11.17
2019-04-04T16:12:09.351Z,10.60
2019-04-04T16:14:40.034Z,10.07
2019-04-04T16:17:11.955Z,10.60
2019-04-04T16:19:42.491Z,11.10
2019-04-04T16:22:13.154Z,10.63
2019-04-04T16:24:42.298Z,10.17
2019-04-04T16:27:13.167Z,10.53
2019-04-04T16:29:45.536Z,10.53
2019-04-04T16:32:16.651Z,10.30
2019-04-04T16:34:45.806Z,12.30
2019-04-04T16:37:14.983Z,10.90
2019-04-04T16:39:45.763Z,10.53
2019-04-04T16:42:19.538Z,11.13
2019-04-04T16:44:50.414Z,10.53
2019-04-04T16:47:21.199Z,10.83
2019-04-04T16:49:50.593Z,11.70
2019-04-04T16:52:23.104Z,11.57
2019-04-04T16:54:53.975Z,11.73
2019-04-04T16:57:26.173Z,12.40
2019-04-04T16:59:56.253Z,12.43
2019-04-04T17:02:25.442Z,12.50
2019-04-04T17:04:56.148Z,12.23
2019-04-04T17:07:26.891Z,12.63
2019-04-04T17:09:58.620Z,12.47
2019-04-04T17:12:27.909Z,12.70
2019-04-04T17:14:58.603Z,13.40
2019-04-04T17:17:27.819Z,12.83
2019-04-04T17:19:58.513Z,12.87
2019-04-04T17:22:30.657Z,12.47
2019-04-04T17:25:03.083Z,13.37
2019-04-04T17:27:32.293Z,12.50
2019-04-04T17:30:01.551Z,13.70
2019-04-04T17:32:33.936Z,13.60
2019-04-04T17:35:06.394Z,14.57
2019-04-04T17:37:37.133Z,14.37
2019-04-04T17:40:09.760Z,13.80
2019-04-04T17:42:39.039Z,13.30
2019-04-04T17:45:10.360Z,12.70
2019-04-04T17:47:39.885Z,12.80
2019-04-04T17:50:11.253Z,12.50
2019-04-04T17:52:43.646Z,11.80
2019-04-04T17:55:19.871Z,11.77
2019-04-04T17:57:53.129Z,10.67
2019-04-04T18:00:25.312Z,10.60
2019-04-04T18:02:55.650Z,10.20
2019-04-04T18:05:26.347Z,10.13
2019-04-04T18:07:55.549Z,10.47
2019-04-04T18:10:24.625Z,10.53
2019-04-04T18:12:53.930Z,9.97
2019-04-04T18:15:24.769Z,10.03
2019-04-04T18:17:56.778Z,10.13
2019-04-04T18:20:26.180Z,9.60
2019-04-04T18:22:56.790Z,9.53
2019-04-04T18:25:25.981Z,10.17
2019-04-04T18:27:55.082Z,9.87
2019-04-04T18:30:24.407Z,10.00
2019-04-04T18:32:53.495Z,10.40
2019-04-04T18:35:23.168Z,10.57
2019-04-04T18:37:52.966Z,9.97
2019-04-04T18:40:22.286Z,10.27
2019-04-04T18:42:53.653Z,10.93
2019-04-04T18:45:22.538Z,10.17
2019-04-04T18:47:51.694Z,9.70
2019-04-04T18:50:21.902Z,11.03
2019-04-04T18:52:51.185Z,10.77
2019-04-04T18:55:20.590Z,10.23
2019-04-04T18:57:49.994Z,10.20
2019-04-04T19:00:19.403Z,10.93
2019-04-04T19:02:48.616Z,10.03
2019-04-04T19:05:17.948Z,9.80
2019-04-04T19:07:47.232Z,9.77
2019-04-04T19:10:17.068Z,10.07
2019-04-04T19:12:46.619Z,10.47
2019-04-04T19:15:16.425Z,10.33
2019-04-04T19:17:45.742Z,10.70
2019-04-04T19:20:15.574Z,9.80
2019-04-04T19:22:44.848Z,10.47
2019-04-04T19:25:14.507Z,10.67
2019-04-04T19:27:44.010Z,10.93
2019-04-04T19:30:13.856Z,10.53
2019-04-04T19:32:43.219Z,11.00
2019-04-04T19:35:13.246Z,11.10
2019-04-04T19:37:42.551Z,11.03
2019-04-04T19:40:12.466Z,11.17
2019-04-04T19:42:41.783Z,11.70
2019-04-04T19:45:11.521Z,11.40
2019-04-04T19:47:40.726Z,11.87
2019-04-04T19:50:13.951Z,13.03
2019-04-04T19:52:43.183Z,12.53
2019-04-04T19:55:12.858Z,12.47
2019-04-04T19:57:42.224Z,12.47
2019-04-04T20:00:12.443Z,11.93
2019-04-04T20:02:43.943Z,11.87
2019-04-04T20:05:12.942Z,11.53
2019-04-04T20:07:42.331Z,11.47
2019-04-04T20:10:12.354Z,12.00
2019-04-04T20:12:41.685Z,12.17
2019-04-04T20:15:11.292Z,11.40
2019-04-04T20:17:40.614Z,11.60
2019-04-04T20:20:11.361Z,11.70
2019-04-04T20:22:40.668Z,11.00
2019-04-04T20:25:09.886Z,11.47
2019-04-04T20:27:39.487Z,11.10
2019-04-04T20:30:09.914Z,11.00
2019-04-04T20:32:39.209Z,10.80
2019-04-04T20:35:11.497Z,10.43
2019-04-04T20:37:40.745Z,10.60
2019-04-04T20:40:10.565Z,10.00
2019-04-04T20:42:39.881Z,10.13
2019-04-04T20:45:10.881Z,9.83
2019-04-04T20:47:40.053Z,9.70
2019-04-04T20:50:09.587Z,9.60
2019-04-04T20:52:38.844Z,9.27
2019-04-04T20:55:09.915Z,9.50
2019-04-04T20:57:41.212Z,9.63
2019-04-04T21:00:12.743Z,9.87
2019-04-04T21:02:41.964Z,9.40
2019-04-04T21:05:11.757Z,8.83
2019-04-04T21:07:42.896Z,9.73
2019-04-04T21:10:16.678Z,9.40
2019-04-04T21:12:45.924Z,9.43
2019-04-04T21:15:17.101Z,8.53
2019-04-04T21:17:46.328Z,8.87
2019-04-04T21:20:17.046Z,8.50
2019-04-04T21:22:46.278Z,8.67
2019-04-04T21:25:16.869Z,9.10
2019-04-04T21:27:49.592Z,8.07
2019-04-04T21:30:20.713Z,8.73
2019-04-04T21:32:49.997Z,8.10
2019-04-04T21:35:22.484Z,8.40
2019-04-04T21:37:51.843Z,8.67
2019-04-04T21:40:22.731Z,8.70
2019-04-04T21:42:56.591Z,8.87
2019-04-04T21:45:27.483Z,9.00
2019-04-04T21:47:56.666Z,8.97
2019-04-04T21:50:27.831Z,9.47
2019-04-04T21:52:57.032Z,8.63
2019-04-04T21:55:29.355Z,8.87
2019-04-04T21:57:58.905Z,8.57
2019-04-04T22:00:35.664Z,8.60
2019-04-04T22:03:07.975Z,8.70
2019-04-04T22:05:37.279Z,8.53
2019-04-04T22:08:09.556Z,8.57
2019-04-04T22:10:38.781Z,7.60
2019-04-04T22:13:08.028Z,8.20
2019-04-04T22:15:40.002Z,7.50
2019-04-04T22:18:09.272Z,7.73
2019-04-04T22:20:41.615Z,7.93
2019-04-04T22:23:12.402Z,8.53
2019-04-04T22:25:42.664Z,8.17
2019-04-04T22:28:13.997Z,8.30
2019-04-04T22:30:48.368Z,7.83
2019-04-04T22:33:20.504Z,7.90
2019-04-04T22:35:52.685Z,7.70
2019-04-04T22:38:27.595Z,7.47
2019-04-04T22:40:58.396Z,7.53
2019-04-04T22:43:28.856Z,8.27
2019-04-04T22:45:57.983Z,7.33
2019-04-04T22:48:29.516Z,7.00
2019-04-04T22:50:59.056Z,6.73
2019-04-04T22:53:29.999Z,7.03
2019-04-04T22:56:00.151Z,6.80
2019-04-04T22:58:32.440Z,7.03
2019-04-04T23:01:05.451Z,7.03
2019-04-04T23:03:38.670Z,6.17
2019-04-04T23:06:07.852Z,6.67
2019-04-04T23:08:37.092Z,6.53
2019-04-04T23:11:07.989Z,6.70
2019-04-04T23:13:37.119Z,7.27
2019-04-04T23:16:06.301Z,6.17
2019-04-04T23:18:35.504Z,6.50
2019-04-04T23:21:04.778Z,6.70
2019-04-04T23:23:34.179Z,6.43
2019-04-04T23:26:03.531Z,6.93
2019-04-04T23:28:32.742Z,6.20
2019-04-04T23:31:01.925Z,6.40
2019-04-04T23:33:31.048Z,6.30
2019-04-04T23:36:00.270Z,6.00
2019-04-04T23:38:29.400Z,6.20
2019-04-04T23:40:58.639Z,6.40
2019-04-04T23:43:27.854Z,6.57
2019-04-04T23:45:57.066Z,6.07
2019-04-04T23:48:26.385Z,6.60
2019-04-04T23:50:55.778Z,6.37
2019-04-04T23:53:24.963Z,6.20
2019-04-04T23:55:54.117Z,6.17
2019-04-04T23:58:23.342Z,6.17
